<?xml version="1.0" encoding="UTF-8" standalone="no" ?>
<gpx xmlns="http://www.topografix.com/GPX/1/1" xmlns:xsi="http://www.w3.org/2001/XMLSchema-instance" xsi:schemaLocation="http://www.topografix.com/GPX/1/1 http://www.topografix.com/GPX/1/1/gpx.xsd" version="1.1" creator="VisuGPX - https://www.visugpx.com">
  <metadata>
    <name>Chalet Hôtel d'Orédon - Tournaboup</name>
  </metadata>
  <wpt lat="42.8254" lon="0.1707">
    <ele>1878</ele>
    <name><![CDATA[Départ. Refuge Hôtel d'Orédon]]></name>
  </wpt>
  <wpt lat="42.83342" lon="0.15759">
    <ele>2070</ele>
    <name><![CDATA[Les Laquettes]]></name>
  </wpt>
  <wpt lat="42.84113" lon="0.14347">
    <ele>2159</ele>
    <name><![CDATA[Parking route goudronnée]]></name>
  </wpt>
  <wpt lat="42.85221" lon="0.12334">
    <ele>2475</ele>
    <name><![CDATA[Hourquette d'Aubert]]></name>
  </wpt>
  <wpt lat="42.86913" lon="0.11725">
    <ele>2126</ele>
    <name><![CDATA[Lac Blanc]]></name>
  </wpt>
  <wpt lat="42.87083" lon="0.1175">
    <ele>2105</ele>
    <name><![CDATA[Bifurcation. Partir à gauche]]></name>
  </wpt>
  <wpt lat="42.8769" lon="0.11231">
    <ele>2018</ele>
    <name><![CDATA[Cabane dets Coubous]]></name>
  </wpt>
  <wpt lat="42.90386" lon="0.10211">
    <ele>1463</ele>
    <name><![CDATA[Arrivée. Parking du Tournabou]]></name>
  </wpt>
  <trk>
    <name><![CDATA[Chalet Hôtel d'Orédon - Tournaboup]]></name>
    <trkseg>
      <trkpt lat="42.8254" lon="0.1707">
        <ele>1878</ele>
        <time>2019-08-11T12:41:18+02:00</time>
      </trkpt>
      <trkpt lat="42.8259" lon="0.16892">
        <ele>1853</ele>
        <time>2019-08-11T12:41:23+02:00</time>
      </trkpt>
      <trkpt lat="42.82618" lon="0.1684">
        <ele>1850</ele>
        <time>2019-08-11T12:41:28+02:00</time>
      </trkpt>
      <trkpt lat="42.82753" lon="0.16943">
        <ele>1855</ele>
        <time>2019-08-11T12:41:33+02:00</time>
      </trkpt>
      <trkpt lat="42.82927" lon="0.16896">
        <ele>1878</ele>
        <time>2019-08-11T12:41:38+02:00</time>
      </trkpt>
      <trkpt lat="42.82964" lon="0.16733">
        <ele>1899</ele>
        <time>2019-08-11T12:41:43+02:00</time>
      </trkpt>
      <trkpt lat="42.82942" lon="0.16411">
        <ele>1896</ele>
        <time>2019-08-11T12:41:48+02:00</time>
      </trkpt>
      <trkpt lat="42.82989" lon="0.16287">
        <ele>1939</ele>
        <time>2019-08-11T12:41:53+02:00</time>
      </trkpt>
      <trkpt lat="42.83103" lon="0.16158">
        <ele>2016</ele>
        <time>2019-08-11T12:41:58+02:00</time>
      </trkpt>
      <trkpt lat="42.83103" lon="0.16042">
        <ele>2018</ele>
        <time>2019-08-11T12:42:03+02:00</time>
      </trkpt>
      <trkpt lat="42.8321" lon="0.15866">
        <ele>2039</ele>
        <time>2019-08-11T12:42:08+02:00</time>
      </trkpt>
      <trkpt lat="42.83342" lon="0.15759">
        <ele>2070</ele>
        <time>2019-08-11T12:42:13+02:00</time>
      </trkpt>
      <trkpt lat="42.83399" lon="0.15437">
        <ele>2093</ele>
        <time>2019-08-11T12:42:18+02:00</time>
      </trkpt>
      <trkpt lat="42.83298" lon="0.15089">
        <ele>2092</ele>
        <time>2019-08-11T12:42:23+02:00</time>
      </trkpt>
      <trkpt lat="42.83339" lon="0.14926">
        <ele>2088</ele>
        <time>2019-08-11T12:42:28+02:00</time>
      </trkpt>
      <trkpt lat="42.83638" lon="0.14591">
        <ele>2105</ele>
        <time>2019-08-11T12:42:33+02:00</time>
      </trkpt>
      <trkpt lat="42.83896" lon="0.14355">
        <ele>2153</ele>
        <time>2019-08-11T12:42:38+02:00</time>
      </trkpt>
      <trkpt lat="42.84022" lon="0.14304">
        <ele>2153</ele>
        <time>2019-08-11T12:42:43+02:00</time>
      </trkpt>
      <trkpt lat="42.84113" lon="0.14347">
        <ele>2159</ele>
        <time>2019-08-11T12:42:48+02:00</time>
      </trkpt>
      <trkpt lat="42.84192" lon="0.14467">
        <ele>2181</ele>
        <time>2019-08-11T12:42:53+02:00</time>
      </trkpt>
      <trkpt lat="42.84412" lon="0.14381">
        <ele>2186</ele>
        <time>2019-08-11T12:42:58+02:00</time>
      </trkpt>
      <trkpt lat="42.8466" lon="0.14124">
        <ele>2212</ele>
        <time>2019-08-11T12:43:03+02:00</time>
      </trkpt>
      <trkpt lat="42.84739" lon="0.14111">
        <ele>2235</ele>
        <time>2019-08-11T12:43:08+02:00</time>
      </trkpt>
      <trkpt lat="42.8483" lon="0.13896">
        <ele>2260</ele>
        <time>2019-08-11T12:43:13+02:00</time>
      </trkpt>
      <trkpt lat="42.84849" lon="0.13776">
        <ele>2257</ele>
        <time>2019-08-11T12:43:18+02:00</time>
      </trkpt>
      <trkpt lat="42.84925" lon="0.1369">
        <ele>2290</ele>
        <time>2019-08-11T12:43:23+02:00</time>
      </trkpt>
      <trkpt lat="42.84914" lon="0.13635">
        <ele>2282</ele>
        <time>2019-08-11T12:43:28+02:00</time>
      </trkpt>
      <trkpt lat="42.84936" lon="0.1358">
        <ele>2290</ele>
        <time>2019-08-11T12:43:33+02:00</time>
      </trkpt>
      <trkpt lat="42.84988" lon="0.13471">
        <ele>2312</ele>
        <time>2019-08-11T12:43:38+02:00</time>
      </trkpt>
      <trkpt lat="42.84959" lon="0.13385">
        <ele>2304</ele>
        <time>2019-08-11T12:43:43+02:00</time>
      </trkpt>
      <trkpt lat="42.85" lon="0.13205">
        <ele>2321</ele>
        <time>2019-08-11T12:43:48+02:00</time>
      </trkpt>
      <trkpt lat="42.85051" lon="0.13162">
        <ele>2343</ele>
        <time>2019-08-11T12:43:53+02:00</time>
      </trkpt>
      <trkpt lat="42.85142" lon="0.13042">
        <ele>2389</ele>
        <time>2019-08-11T12:43:58+02:00</time>
      </trkpt>
      <trkpt lat="42.8516" lon="0.12816">
        <ele>2415</ele>
        <time>2019-08-11T12:44:03+02:00</time>
      </trkpt>
      <trkpt lat="42.85191" lon="0.12653">
        <ele>2439</ele>
        <time>2019-08-11T12:44:08+02:00</time>
      </trkpt>
      <trkpt lat="42.85205" lon="0.12501">
        <ele>2468</ele>
        <time>2019-08-11T12:44:13+02:00</time>
      </trkpt>
      <trkpt lat="42.85161" lon="0.12351">
        <ele>2476</ele>
        <time>2019-08-11T12:44:18+02:00</time>
      </trkpt>
      <trkpt lat="42.85217" lon="0.12368">
        <ele>2478</ele>
        <time>2019-08-11T12:44:23+02:00</time>
      </trkpt>
      <trkpt lat="42.85221" lon="0.12334">
        <ele>2475</ele>
        <time>2019-08-11T12:44:28+02:00</time>
      </trkpt>
      <trkpt lat="42.85343" lon="0.12334">
        <ele>2481</ele>
        <time>2019-08-11T12:44:33+02:00</time>
      </trkpt>
      <trkpt lat="42.85485" lon="0.1224">
        <ele>2422</ele>
        <time>2019-08-11T12:44:38+02:00</time>
      </trkpt>
      <trkpt lat="42.85456" lon="0.12201">
        <ele>2411</ele>
        <time>2019-08-11T12:44:43+02:00</time>
      </trkpt>
      <trkpt lat="42.85573" lon="0.1218">
        <ele>2389</ele>
        <time>2019-08-11T12:44:48+02:00</time>
      </trkpt>
      <trkpt lat="42.85535" lon="0.12154">
        <ele>2389</ele>
        <time>2019-08-11T12:44:53+02:00</time>
      </trkpt>
      <trkpt lat="42.85654" lon="0.12069">
        <ele>2355</ele>
        <time>2019-08-11T12:44:58+02:00</time>
      </trkpt>
      <trkpt lat="42.85784" lon="0.11974">
        <ele>2313</ele>
        <time>2019-08-11T12:45:03+02:00</time>
      </trkpt>
      <trkpt lat="42.85774" lon="0.11922">
        <ele>2309</ele>
        <time>2019-08-11T12:45:08+02:00</time>
      </trkpt>
      <trkpt lat="42.85947" lon="0.11858">
        <ele>2272</ele>
        <time>2019-08-11T12:45:13+02:00</time>
      </trkpt>
      <trkpt lat="42.8612" lon="0.11866">
        <ele>2247</ele>
        <time>2019-08-11T12:45:18+02:00</time>
      </trkpt>
      <trkpt lat="42.86195" lon="0.11846">
        <ele>2239</ele>
        <time>2019-08-11T12:45:23+02:00</time>
      </trkpt>
      <trkpt lat="42.86274" lon="0.11806">
        <ele>2235</ele>
        <time>2019-08-11T12:45:28+02:00</time>
      </trkpt>
      <trkpt lat="42.86293" lon="0.11832">
        <ele>2234</ele>
        <time>2019-08-11T12:45:33+02:00</time>
      </trkpt>
      <trkpt lat="42.86451" lon="0.11768">
        <ele>2224</ele>
        <time>2019-08-11T12:45:38+02:00</time>
      </trkpt>
      <trkpt lat="42.86507" lon="0.1169">
        <ele>2213</ele>
        <time>2019-08-11T12:45:43+02:00</time>
      </trkpt>
      <trkpt lat="42.8663" lon="0.1166">
        <ele>2195</ele>
        <time>2019-08-11T12:45:48+02:00</time>
      </trkpt>
      <trkpt lat="42.86627" lon="0.1163">
        <ele>2192</ele>
        <time>2019-08-11T12:45:53+02:00</time>
      </trkpt>
      <trkpt lat="42.86721" lon="0.11617">
        <ele>2168</ele>
        <time>2019-08-11T12:45:58+02:00</time>
      </trkpt>
      <trkpt lat="42.86803" lon="0.11665">
        <ele>2144</ele>
        <time>2019-08-11T12:46:03+02:00</time>
      </trkpt>
      <trkpt lat="42.86903" lon="0.11626">
        <ele>2114</ele>
        <time>2019-08-11T12:46:08+02:00</time>
      </trkpt>
      <trkpt lat="42.86897" lon="0.11695">
        <ele>2123</ele>
        <time>2019-08-11T12:46:13+02:00</time>
      </trkpt>
      <trkpt lat="42.86913" lon="0.11725">
        <ele>2126</ele>
        <time>2019-08-11T12:46:18+02:00</time>
      </trkpt>
      <trkpt lat="42.87083" lon="0.1175">
        <ele>2105</ele>
        <time>2019-08-11T12:46:23+02:00</time>
      </trkpt>
      <trkpt lat="42.87152" lon="0.11888">
        <ele>2107</ele>
        <time>2019-08-11T12:46:28+02:00</time>
      </trkpt>
      <trkpt lat="42.87281" lon="0.11978">
        <ele>2100</ele>
        <time>2019-08-11T12:46:33+02:00</time>
      </trkpt>
      <trkpt lat="42.87328" lon="0.12055">
        <ele>2118</ele>
        <time>2019-08-11T12:46:38+02:00</time>
      </trkpt>
      <trkpt lat="42.87422" lon="0.11969">
        <ele>2079</ele>
        <time>2019-08-11T12:46:43+02:00</time>
      </trkpt>
      <trkpt lat="42.87583" lon="0.11995">
        <ele>2103</ele>
        <time>2019-08-11T12:46:48+02:00</time>
      </trkpt>
      <trkpt lat="42.87671" lon="0.11841">
        <ele>2085</ele>
        <time>2019-08-11T12:46:53+02:00</time>
      </trkpt>
      <trkpt lat="42.87693" lon="0.11729">
        <ele>2049</ele>
        <time>2019-08-11T12:46:58+02:00</time>
      </trkpt>
      <trkpt lat="42.87781" lon="0.11609">
        <ele>2020</ele>
        <time>2019-08-11T12:47:03+02:00</time>
      </trkpt>
      <trkpt lat="42.8774" lon="0.11502">
        <ele>2008</ele>
        <time>2019-08-11T12:47:08+02:00</time>
      </trkpt>
      <trkpt lat="42.87772" lon="0.11407">
        <ele>1991</ele>
        <time>2019-08-11T12:47:13+02:00</time>
      </trkpt>
      <trkpt lat="42.8769" lon="0.11231">
        <ele>2018</ele>
        <time>2019-08-11T12:47:18+02:00</time>
      </trkpt>
      <trkpt lat="42.87797" lon="0.11012">
        <ele>2015</ele>
        <time>2019-08-11T12:47:23+02:00</time>
      </trkpt>
      <trkpt lat="42.87819" lon="0.1109">
        <ele>1984</ele>
        <time>2019-08-11T12:47:28+02:00</time>
      </trkpt>
      <trkpt lat="42.87907" lon="0.10961">
        <ele>1969</ele>
        <time>2019-08-11T12:47:33+02:00</time>
      </trkpt>
      <trkpt lat="42.87948" lon="0.10956">
        <ele>1955</ele>
        <time>2019-08-11T12:47:38+02:00</time>
      </trkpt>
      <trkpt lat="42.87926" lon="0.11012">
        <ele>1936</ele>
        <time>2019-08-11T12:47:43+02:00</time>
      </trkpt>
      <trkpt lat="42.87919" lon="0.11188">
        <ele>1900</ele>
        <time>2019-08-11T12:47:48+02:00</time>
      </trkpt>
      <trkpt lat="42.87998" lon="0.11137">
        <ele>1861</ele>
        <time>2019-08-11T12:47:53+02:00</time>
      </trkpt>
      <trkpt lat="42.87998" lon="0.11094">
        <ele>1871</ele>
        <time>2019-08-11T12:47:58+02:00</time>
      </trkpt>
      <trkpt lat="42.88212" lon="0.10978">
        <ele>1792</ele>
        <time>2019-08-11T12:48:03+02:00</time>
      </trkpt>
      <trkpt lat="42.88171" lon="0.1109">
        <ele>1789</ele>
        <time>2019-08-11T12:48:08+02:00</time>
      </trkpt>
      <trkpt lat="42.88202" lon="0.11137">
        <ele>1773</ele>
        <time>2019-08-11T12:48:13+02:00</time>
      </trkpt>
      <trkpt lat="42.8818" lon="0.11223">
        <ele>1778</ele>
        <time>2019-08-11T12:48:18+02:00</time>
      </trkpt>
      <trkpt lat="42.88284" lon="0.11253">
        <ele>1765</ele>
        <time>2019-08-11T12:48:23+02:00</time>
      </trkpt>
      <trkpt lat="42.88341" lon="0.11167">
        <ele>1764</ele>
        <time>2019-08-11T12:48:28+02:00</time>
      </trkpt>
      <trkpt lat="42.88375" lon="0.11158">
        <ele>1758</ele>
        <time>2019-08-11T12:48:33+02:00</time>
      </trkpt>
      <trkpt lat="42.8849" lon="0.10996">
        <ele>1739</ele>
        <time>2019-08-11T12:48:38+02:00</time>
      </trkpt>
      <trkpt lat="42.8863" lon="0.10892">
        <ele>1721</ele>
        <time>2019-08-11T12:48:43+02:00</time>
      </trkpt>
      <trkpt lat="42.88627" lon="0.10798">
        <ele>1695</ele>
        <time>2019-08-11T12:48:48+02:00</time>
      </trkpt>
      <trkpt lat="42.88762" lon="0.10832">
        <ele>1715</ele>
        <time>2019-08-11T12:48:53+02:00</time>
      </trkpt>
      <trkpt lat="42.88973" lon="0.1072">
        <ele>1662</ele>
        <time>2019-08-11T12:48:58+02:00</time>
      </trkpt>
      <trkpt lat="42.89039" lon="0.10742">
        <ele>1659</ele>
        <time>2019-08-11T12:49:03+02:00</time>
      </trkpt>
      <trkpt lat="42.89341" lon="0.10669">
        <ele>1593</ele>
        <time>2019-08-11T12:49:08+02:00</time>
      </trkpt>
      <trkpt lat="42.89556" lon="0.10679">
        <ele>1580</ele>
        <time>2019-08-11T12:49:13+02:00</time>
      </trkpt>
      <trkpt lat="42.8976" lon="0.10666">
        <ele>1555</ele>
        <time>2019-08-11T12:49:18+02:00</time>
      </trkpt>
      <trkpt lat="42.89911" lon="0.10507">
        <ele>1500</ele>
        <time>2019-08-11T12:49:23+02:00</time>
      </trkpt>
      <trkpt lat="42.90084" lon="0.10455">
        <ele>1487</ele>
        <time>2019-08-11T12:49:28+02:00</time>
      </trkpt>
      <trkpt lat="42.90157" lon="0.10382">
        <ele>1480</ele>
        <time>2019-08-11T12:49:33+02:00</time>
      </trkpt>
      <trkpt lat="42.90248" lon="0.10305">
        <ele>1469</ele>
        <time>2019-08-11T12:49:38+02:00</time>
      </trkpt>
      <trkpt lat="42.90326" lon="0.10129">
        <ele>1453</ele>
        <time>2019-08-11T12:49:43+02:00</time>
      </trkpt>
      <trkpt lat="42.90386" lon="0.10211">
        <ele>1463</ele>
        <time>2019-08-11T12:49:48+02:00</time>
      </trkpt>
    </trkseg>
  </trk>
</gpx>